createdAt,value
2022-12-03T00:01:22.033Z,-11.39
2022-12-03T00:03:49.376Z,-11.38
2022-12-03T00:06:17.838Z,-11.37
2022-12-03T00:08:45.487Z,-11.30
2022-12-03T00:11:12.936Z,-11.31
2022-12-03T00:13:40.619Z,-11.32
2022-12-03T00:16:08.592Z,-11.43
2022-12-03T00:18:36.493Z,-11.43
2022-12-03T00:21:04.144Z,-11.45
2022-12-03T00:23:33.200Z,-11.48
2022-12-03T00:26:02.364Z,-11.49
2022-12-03T00:28:30.365Z,-11.45
2022-12-03T00:30:57.709Z,-11.55
2022-12-03T00:33:25.285Z,-11.43
2022-12-03T00:35:52.782Z,-11.40
2022-12-03T00:38:20.240Z,-11.37
2022-12-03T00:40:47.801Z,-11.89
2022-12-03T00:43:15.646Z,-11.41
2022-12-03T00:45:43.050Z,-11.51
2022-12-03T00:48:10.451Z,-11.50
2022-12-03T00:50:38.345Z,-11.49
2022-12-03T00:53:05.892Z,-11.60
2022-12-03T00:55:33.154Z,-11.43
2022-12-03T00:58:01.163Z,-11.44
2022-12-03T01:00:28.529Z,-11.45
2022-12-03T01:02:55.934Z,-11.42
2022-12-03T01:05:23.532Z,-12.14
2022-12-03T01:07:51.127Z,-11.45
2022-12-03T01:10:18.983Z,-11.49
2022-12-03T01:12:46.863Z,-11.52
2022-12-03T01:15:14.466Z,-11.62
2022-12-03T01:17:41.914Z,-11.66
2022-12-03T01:20:10.847Z,-11.70
2022-12-03T01:22:38.860Z,-11.66
2022-12-03T01:25:06.686Z,-11.77
2022-12-03T01:27:34.467Z,-11.72
2022-12-03T01:30:02.206Z,-12.02
2022-12-03T01:32:31.880Z,-12.70
2022-12-03T01:34:59.636Z,-11.67
2022-12-03T01:37:27.512Z,-11.74
2022-12-03T01:39:55.197Z,-11.85
2022-12-03T01:42:42.073Z,-11.94
2022-12-03T01:45:22.825Z,-11.90
2022-12-03T01:47:50.835Z,-12.37
2022-12-03T01:50:23.886Z,-11.99
2022-12-03T01:52:52.608Z,-12.45
2022-12-03T01:55:23.143Z,-12.68
2022-12-03T01:57:54.279Z,-11.96
2022-12-03T02:00:29.426Z,-12.04
2022-12-03T02:03:00.725Z,-12.18
2022-12-03T02:05:31.242Z,-12.01
2022-12-03T02:07:59.545Z,-12.04
2022-12-03T02:10:33.199Z,-12.07
2022-12-03T02:13:06.638Z,-12.78
2022-12-03T02:15:35.368Z,-13.32
2022-12-03T02:18:03.361Z,-12.68
2022-12-03T02:20:36.548Z,-12.00
2022-12-03T02:23:21.810Z,-11.99
2022-12-03T02:25:49.127Z,-11.98
2022-12-03T02:28:16.676Z,-12.06
2022-12-03T02:30:44.206Z,-12.27
2022-12-03T02:33:12.086Z,-12.19
2022-12-03T02:35:40.527Z,-12.22
2022-12-03T02:38:29.546Z,-12.40
2022-12-03T02:41:00.951Z,-12.34
2022-12-03T02:43:28.589Z,-12.34
2022-12-03T02:46:00.420Z,-12.35
2022-12-03T02:48:32.221Z,-12.89
2022-12-03T02:51:02.448Z,-12.42
2022-12-03T02:53:34.588Z,-12.42
2022-12-03T02:56:03.665Z,-12.38
2022-12-03T02:58:33.219Z,-12.31
2022-12-03T03:01:02.966Z,-12.34
2022-12-03T03:03:32.611Z,-12.32
2022-12-03T03:06:02.928Z,-12.34
2022-12-03T03:08:31.451Z,-12.34
2022-12-03T03:11:01.555Z,-13.24
2022-12-03T03:13:31.229Z,-12.77
2022-12-03T03:15:58.919Z,-13.30
2022-12-03T03:18:26.736Z,-12.35
2022-12-03T03:20:54.380Z,-12.33
2022-12-03T03:23:24.125Z,-12.31
2022-12-03T03:26:00.256Z,-12.24
2022-12-03T03:28:28.567Z,-12.22
2022-12-03T03:30:56.502Z,-12.13
2022-12-03T03:33:24.254Z,-12.30
2022-12-03T03:35:51.895Z,-13.64
2022-12-03T03:38:20.706Z,-13.38
2022-12-03T03:40:51.144Z,-12.42
2022-12-03T03:43:20.297Z,-12.37
2022-12-03T03:45:48.130Z,-12.41
2022-12-03T03:48:16.348Z,-12.44
2022-12-03T03:50:44.813Z,-12.34
2022-12-03T03:53:13.063Z,-12.73
2022-12-03T03:55:42.001Z,-12.54
2022-12-03T03:58:09.957Z,-13.00
2022-12-03T04:00:37.693Z,-13.07
2022-12-03T04:03:06.564Z,-12.47
2022-12-03T04:05:34.170Z,-12.40
2022-12-03T04:08:01.778Z,-12.34
2022-12-03T04:10:48.356Z,-12.27
2022-12-03T04:13:15.913Z,-12.21
2022-12-03T04:15:43.358Z,-12.47
2022-12-03T04:18:29.550Z,-12.36
2022-12-03T04:21:18.503Z,-12.19
2022-12-03T04:23:46.411Z,-12.43
2022-12-03T04:26:32.636Z,-13.41
2022-12-03T04:29:00.276Z,-13.15
2022-12-03T04:31:46.260Z,-12.67
2022-12-03T04:34:32.659Z,-12.81
2022-12-03T04:37:00.388Z,-13.28
2022-12-03T04:39:27.689Z,-13.14
2022-12-03T04:41:55.367Z,-13.06
2022-12-03T04:44:37.732Z,-14.46
2022-12-03T04:47:10.492Z,-13.02
2022-12-03T04:49:41.187Z,-13.16
2022-12-03T04:52:09.700Z,-13.26
2022-12-03T04:54:38.879Z,-13.20
2022-12-03T04:57:07.223Z,-13.24
2022-12-03T04:59:35.992Z,-13.22
2022-12-03T05:02:04.721Z,-13.17
2022-12-03T05:04:34.236Z,-13.19
2022-12-03T05:07:01.674Z,-13.29
2022-12-03T05:09:29.278Z,-13.53
2022-12-03T05:11:57.063Z,-13.28
2022-12-03T05:14:24.640Z,-13.36
2022-12-03T05:16:52.145Z,-13.32
2022-12-03T05:19:19.868Z,-13.35
2022-12-03T05:21:47.149Z,-13.26
2022-12-03T05:24:15.023Z,-13.21
2022-12-03T05:26:42.852Z,-13.16
2022-12-03T05:29:10.121Z,-13.14
2022-12-03T05:31:37.907Z,-13.17
2022-12-03T05:34:06.104Z,-13.13
2022-12-03T05:36:33.444Z,-13.12
2022-12-03T05:39:00.854Z,-13.15
2022-12-03T05:41:47.005Z,-13.57
2022-12-03T05:44:20.108Z,-13.75
2022-12-03T05:46:48.109Z,-12.95
2022-12-03T05:49:15.976Z,-13.31
2022-12-03T05:51:43.568Z,-12.70
2022-12-03T05:54:10.882Z,-12.50
2022-12-03T05:56:38.909Z,-12.44
2022-12-03T05:59:06.426Z,-12.46
2022-12-03T06:01:34.564Z,-12.46
2022-12-03T06:04:02.276Z,-12.44
2022-12-03T06:06:29.872Z,-12.34
2022-12-03T06:08:57.685Z,-12.23
2022-12-03T06:11:25.349Z,-12.20
2022-12-03T06:13:52.775Z,-12.18
2022-12-03T06:16:20.657Z,-12.07
2022-12-03T06:18:48.547Z,-12.05
2022-12-03T06:21:16.174Z,-12.04
2022-12-03T06:23:45.003Z,-12.06
2022-12-03T06:26:13.439Z,-11.94
2022-12-03T06:28:45.732Z,-11.84
2022-12-03T06:31:13.969Z,-11.78
2022-12-03T06:33:41.627Z,-11.69
2022-12-03T06:36:09.579Z,-11.62
2022-12-03T06:38:36.834Z,-12.61
2022-12-03T06:41:04.520Z,-11.61
2022-12-03T06:43:32.418Z,-11.49
2022-12-03T06:45:59.795Z,-11.38
2022-12-03T06:48:27.594Z,-11.32
2022-12-03T06:50:55.360Z,-11.32
2022-12-03T06:53:22.986Z,-11.19
2022-12-03T06:55:50.655Z,-12.37
2022-12-03T06:58:18.272Z,-11.56
2022-12-03T07:00:45.620Z,-11.05
2022-12-03T07:03:13.643Z,-11.00
2022-12-03T07:05:41.162Z,-10.99
2022-12-03T07:08:08.825Z,-10.90
2022-12-03T07:10:36.996Z,-11.51
2022-12-03T07:13:04.575Z,-10.77
2022-12-03T07:15:31.877Z,-10.65
2022-12-03T07:17:59.859Z,-10.58
2022-12-03T07:20:27.208Z,-10.46
2022-12-03T07:22:54.418Z,-10.62
2022-12-03T07:25:23.678Z,-10.27
2022-12-03T07:27:51.700Z,-10.16
2022-12-03T07:30:19.213Z,-10.09
2022-12-03T07:32:46.660Z,-10.05
2022-12-03T07:35:14.178Z,-10.08
2022-12-03T07:37:41.723Z,-10.06
2022-12-03T07:40:10.389Z,-10.08
2022-12-03T07:42:38.394Z,-10.19
2022-12-03T07:45:06.761Z,-10.17
2022-12-03T07:47:34.297Z,-10.88
2022-12-03T07:50:02.049Z,-10.02
2022-12-03T07:52:30.301Z,-10.90
2022-12-03T07:54:57.861Z,-9.87
2022-12-03T07:57:25.233Z,-9.87
2022-12-03T07:59:52.649Z,-9.77
2022-12-03T08:02:21.870Z,-9.89
2022-12-03T08:04:49.705Z,-9.91
2022-12-03T08:07:17.236Z,-9.68
2022-12-03T08:09:45.005Z,-9.53
2022-12-03T08:12:18.532Z,-9.43
2022-12-03T08:14:46.215Z,-9.33
2022-12-03T08:17:15.284Z,-9.22
2022-12-03T08:19:47.196Z,-9.12
2022-12-03T08:22:16.100Z,-9.28
2022-12-03T08:24:44.180Z,-8.97
2022-12-03T08:27:19.324Z,-8.94
2022-12-03T08:29:46.997Z,-9.19
2022-12-03T08:32:14.645Z,-9.07
2022-12-03T08:34:44.423Z,-9.07
2022-12-03T08:37:21.547Z,-8.89
2022-12-03T08:39:51.118Z,-8.82
2022-12-03T08:42:43.720Z,-8.69
2022-12-03T08:45:29.732Z,-8.71
2022-12-03T08:48:03.099Z,-8.64
2022-12-03T08:50:39.161Z,-8.55
2022-12-03T08:53:16.016Z,-8.64
2022-12-03T08:55:48.200Z,-8.58
2022-12-03T08:58:30.990Z,-8.44
2022-12-03T09:01:06.103Z,-8.42
2022-12-03T09:03:33.859Z,-8.52
2022-12-03T09:06:01.186Z,-10.11
2022-12-03T09:08:28.792Z,-8.43
2022-12-03T09:10:56.645Z,-8.55
2022-12-03T09:13:24.180Z,-9.10
2022-12-03T09:15:51.808Z,-8.25
2022-12-03T09:18:19.395Z,-8.40
2022-12-03T09:20:47.090Z,-8.49
2022-12-03T09:23:14.756Z,-8.38
2022-12-03T09:25:42.482Z,-8.21
2022-12-03T09:28:10.475Z,-8.26
2022-12-03T09:30:37.725Z,-8.65
2022-12-03T09:33:05.100Z,-8.53
2022-12-03T09:35:33.590Z,-8.16
2022-12-03T09:38:01.187Z,-8.25
2022-12-03T09:40:29.371Z,-8.28
2022-12-03T09:42:58.799Z,-8.29
2022-12-03T09:45:26.202Z,-8.34
2022-12-03T09:47:54.818Z,-8.54
2022-12-03T09:50:26.921Z,-8.41
2022-12-03T09:52:57.336Z,-9.07
2022-12-03T09:55:27.715Z,-8.38
2022-12-03T09:57:56.747Z,-8.35
2022-12-03T10:00:27.568Z,-9.63
2022-12-03T10:02:58.363Z,-8.40
2022-12-03T10:05:26.075Z,-8.22
2022-12-03T10:07:53.797Z,-8.12
2022-12-03T10:10:23.945Z,-8.16
2022-12-03T10:12:52.651Z,-8.14
2022-12-03T10:15:23.464Z,-8.29
2022-12-03T10:17:54.684Z,-8.23
2022-12-03T10:20:24.374Z,-8.17
2022-12-03T10:22:52.022Z,-8.16
2022-12-03T10:25:22.912Z,-8.12
2022-12-03T10:27:58.840Z,-8.16
2022-12-03T10:30:28.759Z,-8.17
2022-12-03T10:32:58.497Z,-8.08
2022-12-03T10:35:37.863Z,-7.99
2022-12-03T10:38:08.495Z,-8.23
2022-12-03T10:40:38.633Z,-8.69
2022-12-03T10:43:18.285Z,-8.12
2022-12-03T10:45:46.863Z,-8.13
2022-12-03T10:48:17.673Z,-8.75
2022-12-03T10:51:05.699Z,-8.18
2022-12-03T10:53:36.019Z,-8.12
2022-12-03T10:56:06.255Z,-8.11
2022-12-03T10:58:39.889Z,-8.16
2022-12-03T11:01:16.125Z,-8.04
2022-12-03T11:03:43.825Z,-8.09
2022-12-03T11:06:17.515Z,-8.09
2022-12-03T11:08:52.996Z,-8.73
2022-12-03T11:11:29.223Z,-8.14
2022-12-03T11:14:04.583Z,-8.18
2022-12-03T11:16:41.040Z,-8.24
2022-12-03T11:19:44.092Z,-8.79
2022-12-03T11:22:11.766Z,-8.09
2022-12-03T11:24:40.715Z,-8.63
2022-12-03T11:27:18.793Z,-8.01
2022-12-03T11:29:52.211Z,-8.07
2022-12-03T11:32:40.735Z,-8.13
2022-12-03T11:35:24.315Z,-8.09
2022-12-03T11:37:52.600Z,-8.55
2022-12-03T11:40:20.041Z,-8.08
2022-12-03T11:42:48.930Z,-8.32
2022-12-03T11:45:31.020Z,-8.10
2022-12-03T11:47:58.385Z,-8.07
2022-12-03T11:50:58.236Z,-8.19
2022-12-03T11:53:27.372Z,-8.14
2022-12-03T11:56:09.577Z,-8.11
2022-12-03T11:58:39.532Z,-8.09
2022-12-03T12:01:08.629Z,-8.12
2022-12-03T12:03:42.399Z,-8.07
2022-12-03T12:06:19.124Z,-8.06
2022-12-03T12:08:52.617Z,-8.00
2022-12-03T12:11:26.309Z,-7.96
2022-12-03T12:13:56.997Z,-7.96
2022-12-03T12:16:47.721Z,-7.96
2022-12-03T12:19:41.625Z,-8.00
2022-12-03T12:22:16.045Z,-8.00
2022-12-03T12:24:51.930Z,-7.89
2022-12-03T12:27:31.012Z,-7.86
2022-12-03T12:30:01.525Z,-7.82
2022-12-03T12:33:05.906Z,-7.80
2022-12-03T12:35:33.516Z,-7.79
2022-12-03T12:38:07.092Z,-7.78
2022-12-03T12:40:37.045Z,-7.87
2022-12-03T12:43:25.900Z,-7.75
2022-12-03T12:46:13.611Z,-7.75
2022-12-03T12:48:48.065Z,-7.87
2022-12-03T12:51:20.761Z,-7.87
2022-12-03T12:53:50.005Z,-7.85
2022-12-03T12:56:20.469Z,-7.74
2022-12-03T12:58:48.630Z,-7.69
2022-12-03T13:01:26.622Z,-7.82
2022-12-03T13:03:54.876Z,-8.82
2022-12-03T13:06:26.572Z,-7.65
2022-12-03T13:08:54.523Z,-7.56
2022-12-03T13:11:25.683Z,-7.55
2022-12-03T13:13:53.415Z,-7.85
2022-12-03T13:16:29.006Z,-7.56
2022-12-03T13:19:01.764Z,-7.56
2022-12-03T13:21:40.768Z,-7.53
2022-12-03T13:24:34.605Z,-7.49
2022-12-03T13:27:14.084Z,-7.45
2022-12-03T13:29:42.054Z,-7.66
2022-12-03T13:32:29.612Z,-7.45
2022-12-03T13:35:07.865Z,-7.43
2022-12-03T13:37:35.484Z,-7.39
2022-12-03T13:40:28.106Z,-7.53
2022-12-03T13:42:55.614Z,-7.42
2022-12-03T13:45:25.015Z,-7.35
2022-12-03T13:47:57.173Z,-7.40
2022-12-03T13:50:42.165Z,-7.43
2022-12-03T13:53:35.571Z,-7.36
2022-12-03T13:56:31.879Z,-7.36
2022-12-03T13:59:01.976Z,-7.36
2022-12-03T14:01:30.504Z,-7.35
2022-12-03T14:03:57.985Z,-7.32
2022-12-03T14:06:25.764Z,-7.53
2022-12-03T14:08:53.561Z,-7.20
2022-12-03T14:11:40.272Z,-7.94
2022-12-03T14:14:07.951Z,-7.30
2022-12-03T14:16:35.676Z,-7.13
2022-12-03T14:19:04.261Z,-7.15
2022-12-03T14:21:31.750Z,-7.76
2022-12-03T14:23:59.129Z,-7.02
2022-12-03T14:26:27.081Z,-7.06
2022-12-03T14:28:54.851Z,-7.06
2022-12-03T14:31:22.261Z,-7.11
2022-12-03T14:33:50.059Z,-7.17
2022-12-03T14:36:17.810Z,-7.68
2022-12-03T14:38:45.413Z,-7.08
2022-12-03T14:41:31.868Z,-7.06
2022-12-03T14:43:59.207Z,-7.05
2022-12-03T14:46:26.776Z,-7.15
2022-12-03T14:48:54.723Z,-6.99
2022-12-03T14:51:22.437Z,-6.97
2022-12-03T14:53:49.933Z,-7.04
2022-12-03T14:56:19.697Z,-7.10
2022-12-03T14:58:47.388Z,-7.13
2022-12-03T15:01:15.383Z,-7.33
2022-12-03T15:03:43.059Z,-7.19
2022-12-03T15:06:10.541Z,-7.16
2022-12-03T15:08:38.368Z,-7.21
2022-12-03T15:11:06.862Z,-7.98
2022-12-03T15:13:35.494Z,-7.03
2022-12-03T15:16:03.476Z,-7.08
2022-12-03T15:18:31.583Z,-7.07
2022-12-03T15:20:59.184Z,-7.06
2022-12-03T15:23:26.525Z,-7.15
2022-12-03T15:25:54.282Z,-7.12
2022-12-03T15:28:23.204Z,-7.13
2022-12-03T15:30:51.032Z,-7.00
2022-12-03T15:33:18.963Z,-7.03
2022-12-03T15:35:46.370Z,-6.99
2022-12-03T15:38:13.770Z,-6.99
2022-12-03T15:40:41.652Z,-7.04
2022-12-03T15:43:10.023Z,-7.06
2022-12-03T15:45:37.621Z,-7.02
2022-12-03T15:48:05.851Z,-6.98
2022-12-03T15:50:38.471Z,-6.85
2022-12-03T15:53:07.347Z,-6.90
2022-12-03T15:55:35.407Z,-7.96
2022-12-03T15:58:02.649Z,-6.86
2022-12-03T16:00:30.284Z,-6.92
2022-12-03T16:02:58.003Z,-6.86
2022-12-03T16:05:25.489Z,-6.99
2022-12-03T16:07:53.236Z,-6.70
2022-12-03T16:10:21.678Z,-6.66
2022-12-03T16:12:49.410Z,-6.76
2022-12-03T16:15:19.859Z,-6.67
2022-12-03T16:17:49.787Z,-7.17
2022-12-03T16:20:17.084Z,-6.80
2022-12-03T16:22:44.868Z,-7.02
2022-12-03T16:25:12.463Z,-6.96
2022-12-03T16:27:41.185Z,-7.36
2022-12-03T16:30:09.928Z,-6.88
2022-12-03T16:32:37.659Z,-6.87
2022-12-03T16:35:05.669Z,-7.11
2022-12-03T16:37:33.420Z,-7.05
2022-12-03T16:40:01.495Z,-7.12
2022-12-03T16:42:30.436Z,-7.63
2022-12-03T16:45:04.064Z,-7.36
2022-12-03T16:47:34.303Z,-7.29
2022-12-03T16:50:03.001Z,-7.36
2022-12-03T16:52:30.732Z,-7.49
2022-12-03T16:54:58.245Z,-7.57
2022-12-03T16:57:31.755Z,-7.59
2022-12-03T17:00:01.582Z,-7.61
2022-12-03T17:02:31.437Z,-7.47
2022-12-03T17:04:58.939Z,-8.06
2022-12-03T17:07:26.641Z,-7.48
2022-12-03T17:09:54.583Z,-7.48
2022-12-03T17:12:22.083Z,-7.57
2022-12-03T17:14:50.142Z,-7.68
2022-12-03T17:17:18.530Z,-7.76
2022-12-03T17:19:45.852Z,-7.93
2022-12-03T17:22:14.177Z,-8.40
2022-12-03T17:24:44.275Z,-7.80
2022-12-03T17:27:12.987Z,-7.79
2022-12-03T17:29:40.893Z,-7.66
2022-12-03T17:32:09.919Z,-7.66
2022-12-03T17:34:37.234Z,-7.57
2022-12-03T17:37:04.778Z,-7.65
2022-12-03T17:39:32.682Z,-7.69
2022-12-03T17:42:00.334Z,-7.60
2022-12-03T17:44:28.275Z,-8.23
2022-12-03T17:46:55.705Z,-7.75
2022-12-03T17:49:28.312Z,-7.65
2022-12-03T17:51:58.560Z,-7.69
2022-12-03T17:54:43.308Z,-8.75
2022-12-03T17:57:14.160Z,-8.52
2022-12-03T17:59:41.822Z,-8.28
2022-12-03T18:02:09.587Z,-7.93
2022-12-03T18:04:37.872Z,-7.95
2022-12-03T18:07:09.116Z,-8.05
2022-12-03T18:09:36.792Z,-8.01
2022-12-03T18:12:04.780Z,-7.92
2022-12-03T18:14:32.283Z,-7.87
2022-12-03T18:16:59.742Z,-8.63
2022-12-03T18:19:27.435Z,-7.92
2022-12-03T18:21:55.314Z,-7.91
2022-12-03T18:24:23.013Z,-7.93
2022-12-03T18:26:51.077Z,-7.97
2022-12-03T18:29:18.618Z,-7.90
2022-12-03T18:31:48.387Z,-8.41
2022-12-03T18:34:16.096Z,-7.90
2022-12-03T18:36:43.727Z,-8.01
2022-12-03T18:39:20.809Z,-7.99
2022-12-03T18:41:48.772Z,-9.15
2022-12-03T18:44:16.202Z,-8.58
2022-12-03T18:46:59.388Z,-7.88
2022-12-03T18:49:27.402Z,-8.19
2022-12-03T18:51:59.344Z,-7.95
2022-12-03T18:54:27.369Z,-7.88
2022-12-03T18:56:55.013Z,-8.41
2022-12-03T18:59:22.947Z,-7.86
2022-12-03T19:01:50.921Z,-8.53
2022-12-03T19:04:18.205Z,-7.78
2022-12-03T19:06:48.881Z,-7.91
2022-12-03T19:09:16.642Z,-7.79
2022-12-03T19:11:44.567Z,-8.77
2022-12-03T19:14:12.480Z,-7.72
2022-12-03T19:16:41.153Z,-7.88
2022-12-03T19:19:09.988Z,-8.23
2022-12-03T19:21:37.885Z,-7.51
2022-12-03T19:26:55.840Z,-8.06
2022-12-03T19:29:23.938Z,-7.46
2022-12-03T19:31:52.163Z,-7.49
2022-12-03T19:34:21.004Z,-7.50
2022-12-03T19:36:48.768Z,-8.24
2022-12-03T19:39:16.620Z,-7.57
2022-12-03T19:41:44.958Z,-7.37
2022-12-03T19:44:14.548Z,-7.34
2022-12-03T19:46:42.708Z,-8.33
2022-12-03T19:49:10.967Z,-7.39
2022-12-03T19:51:38.941Z,-8.84
2022-12-03T19:54:07.953Z,-7.46
2022-12-03T19:56:35.787Z,-7.46
2022-12-03T19:59:03.736Z,-7.48
2022-12-03T20:01:33.808Z,-7.51
2022-12-03T20:04:03.769Z,-7.46
2022-12-03T20:06:34.308Z,-7.45
2022-12-03T20:09:06.669Z,-8.35
2022-12-03T20:11:35.572Z,-7.53
2022-12-03T20:14:06.537Z,-7.92
2022-12-03T20:16:34.485Z,-7.54
2022-12-03T20:19:05.246Z,-7.82
2022-12-03T20:21:34.502Z,-7.69
2022-12-03T20:24:02.464Z,-7.59
2022-12-03T20:26:30.071Z,-7.55
2022-12-03T20:28:58.433Z,-7.51
2022-12-03T20:31:29.271Z,-7.80
2022-12-03T20:33:59.660Z,-7.46
2022-12-03T20:36:29.379Z,-7.48
2022-12-03T20:38:59.852Z,-7.45
2022-12-03T20:41:27.869Z,-7.36
2022-12-03T20:43:55.595Z,-7.31
2022-12-03T20:46:27.615Z,-7.36
2022-12-03T20:48:56.266Z,-7.39
2022-12-03T20:51:27.379Z,-7.23
2022-12-03T20:53:56.122Z,-7.88
2022-12-03T20:56:31.466Z,-7.72
2022-12-03T20:59:07.945Z,-7.09
2022-12-03T21:01:36.538Z,-8.57
2022-12-03T21:04:05.614Z,-7.49
2022-12-03T21:06:36.185Z,-7.37
2022-12-03T21:09:06.454Z,-7.44
2022-12-03T21:11:35.986Z,-7.43
2022-12-03T21:14:04.798Z,-8.23
2022-12-03T21:19:23.749Z,-7.51
2022-12-03T21:21:51.384Z,-7.63
2022-12-03T21:24:19.121Z,-9.18
2022-12-03T21:26:46.815Z,-7.67
2022-12-03T21:29:14.252Z,-7.84
2022-12-03T21:31:41.874Z,-7.54
2022-12-03T21:34:09.654Z,-7.48
2022-12-03T21:36:37.303Z,-7.44
2022-12-03T21:39:05.758Z,-7.39
2022-12-03T21:41:35.349Z,-7.37
2022-12-03T21:44:03.263Z,-7.33
2022-12-03T21:47:12.280Z,-7.31
2022-12-03T21:49:19.518Z,-7.93
2022-12-03T21:51:47.433Z,-7.21
2022-12-03T21:54:15.349Z,-7.10
2022-12-03T21:56:43.329Z,-7.16
2022-12-03T21:59:11.095Z,-7.19
2022-12-03T22:01:42.764Z,-7.35
2022-12-03T22:04:13.444Z,-8.21
2022-12-03T22:06:40.717Z,-7.25
2022-12-03T22:09:07.985Z,-7.15
2022-12-03T22:11:35.987Z,-7.09
2022-12-03T22:14:04.888Z,-7.10
2022-12-03T22:16:32.588Z,-8.17
2022-12-03T22:19:00.434Z,-7.15
2022-12-03T22:21:27.913Z,-7.12
2022-12-03T22:23:56.069Z,-7.47
2022-12-03T22:26:23.931Z,-7.59
2022-12-03T22:28:51.610Z,-7.46
2022-12-03T22:31:19.312Z,-7.37
2022-12-03T22:33:48.672Z,-7.69
2022-12-03T22:36:21.084Z,-7.28
2022-12-03T22:38:50.905Z,-8.04
2022-12-03T22:41:20.075Z,-7.25
2022-12-03T22:43:48.376Z,-7.27
2022-12-03T22:46:17.048Z,-7.20
2022-12-03T22:48:46.128Z,-7.15
2022-12-03T22:51:22.195Z,-7.13
2022-12-03T22:53:55.803Z,-7.22
2022-12-03T22:56:23.930Z,-7.56
2022-12-03T22:58:51.722Z,-8.33
2022-12-03T23:01:23.914Z,-7.40
2022-12-03T23:03:51.812Z,-7.46
2022-12-03T23:06:19.663Z,-8.33
2022-12-03T23:08:47.447Z,-7.48
2022-12-03T23:11:15.951Z,-7.45
2022-12-03T23:13:43.878Z,-7.39
2022-12-03T23:16:16.090Z,-7.50
2022-12-03T23:18:43.810Z,-7.64
2022-12-03T23:21:16.938Z,-7.72
2022-12-03T23:23:44.540Z,-7.73
2022-12-03T23:26:13.549Z,-7.80
2022-12-03T23:28:42.241Z,-8.85
2022-12-03T23:31:22.311Z,-7.82
2022-12-03T23:33:51.130Z,-7.85
2022-12-03T23:36:19.120Z,-8.64
2022-12-03T23:38:47.040Z,-7.90
2022-12-03T23:41:18.320Z,-7.80
2022-12-03T23:43:45.952Z,-7.79
2022-12-03T23:46:18.129Z,-7.80
2022-12-03T23:48:45.879Z,-7.76
2022-12-03T23:51:16.415Z,-7.80
2022-12-03T23:53:44.928Z,-7.72
2022-12-03T23:56:16.838Z,-7.80
2022-12-03T23:58:45.163Z,-8.90
